الصفحة الرئيسية
METAR-TAF:

METAR-TAF

مطار :

مطار واتاي الدولي

فيينتيان, لاوس

دائرة عرض: 17-57N, خط طول: 102-34E, ارتفاع: 171 متر

مراقبة الطقس الحالي

تاريخ ووقت الإصدار 5ساعات و 33 دقيقة قبل الساعة 12:00UTC
ريح 4 عقدة من الشمال/الشمال الغربي
درجة الحرارة 27°درجة مئوية
الرطوبة 94%
ضغط 1010 hPa
الرؤية: 5000 متر
غيوم قليلة على ارتفاع 2000 قدم
غشاء

METAR: VLVT 211200Z 34004KT 5000 BR FEW020 27/26 Q1010 NOSIG

زمن: 00:33 (17:33 UTC)

توقعات

تاريخ ووقت الإصدار 6ساعات و 33 دقيقة قبل الساعة 11:00UTC
التوقعات صالحة من21 الساعة 12 UTC إلى 22 الساعة 12 UTC
ريح 4 عقدة من الشرق/الشمال الشرقي
الرؤية: 5000 متر
غيوم قليلة على ارتفاع 1600 قدم
غيوم قليلة على ارتفاع 5000 قدم
غيوم متفرقة على ارتفاع 20000 قدم
غشاء

TAF: VLVT 211100Z 2112/2212 06004KT 5000 BR FEW016 FEW050 SCT200

أرصاد الطقس والتوقعات من أكثر من 4000 مطار (تقارير الطقس للمطار METAR والتنبؤ بالطقس بالمطارTAF).

المحطات المتاحة هي النقط الصفراء والحمراء على الخريطة.

حرك المؤشر فوق النقطة لمعرفة اسم المحطة.

ثم انقر لمعرفة أرصاد وتوقعات الطقس.

لتغيير الخارطة: اضغط على الأزرار الخضراء مع رمز الصليب الأسود للتكبير. على الزر الأخضر مع شرطة للتصغير، أو على الأسهم الخضراء للخرائط المجاورة.


METAR-TAF: